Time;durP1;ratioP1;P1;durP2;ratioP2;P2;SDS_P1;SDS_P2;PMS_P1;PMS_P2;Temp;Humidity;BMP_temperature;BMP_pressure;BME280_temperature;BME280_humidity;BME280_pressure;Samples;Min_cycle;Max_cycle;Signal;HPM_P1;HPM_P2
2022/05/12 00:00:19;;;;;;;3.67;1.42;;;22.60;99.20;;;;;;4211993;28;20240;-77
2022/05/12 00:02:21;;;;;;;2.45;1.17;;;22.60;99.10;;;;;;4209828;28;20215;-77
2022/05/12 00:04:24;;;;;;;2.83;1.23;;;22.60;99.20;;;;;;4211954;28;20251;-78
2022/05/12 00:06:26;;;;;;;2.10;1.35;;;22.50;99.10;;;;;;4209432;28;20222;-78
2022/05/12 00:08:28;;;;;;;4.13;1.60;;;22.50;99.10;;;;;;4211422;28;20218;-77
2022/05/12 00:10:31;;;;;;;3.50;1.40;;;22.50;99.20;;;;;;4211927;28;20737;-78
2022/05/12 00:12:35;;;;;;;2.22;1.20;;;22.50;99.20;;;;;;4211357;28;20226;-78
2022/05/12 00:14:37;;;;;;;3.03;1.30;;;22.50;99.20;;;;;;4211048;28;20272;-77
2022/05/12 00:16:40;;;;;;;3.22;1.25;;;22.50;99.20;;;;;;4212105;28;20230;-77
2022/05/12 00:18:42;;;;;;;2.25;1.27;;;22.50;99.20;;;;;;4211931;28;20210;-78
2022/05/12 00:20:44;;;;;;;2.20;1.20;;;22.50;99.30;;;;;;4212511;28;20596;-77
2022/05/12 00:22:47;;;;;;;3.33;1.40;;;22.50;99.30;;;;;;4211551;28;20276;-77
2022/05/12 00:24:49;;;;;;;3.05;1.48;;;22.50;99.30;;;;;;4208273;28;20264;-77
2022/05/12 00:26:52;;;;;;;2.75;1.48;;;22.50;99.30;;;;;;4211426;28;20300;-77
2022/05/12 00:28:57;;;;;;;2.42;1.40;;;22.50;99.30;;;;;;4193575;28;20261;-77
2022/05/12 00:31:00;;;;;;;2.40;1.10;;;22.50;99.30;;;;;;4212131;28;20315;-77
2022/05/12 00:33:03;;;;;;;2.38;1.10;;;22.50;99.30;;;;;;4210988;28;20207;-77
2022/05/12 00:35:07;;;;;;;2.63;1.50;;;22.50;99.30;;;;;;4211015;28;20207;-77
2022/05/12 00:37:10;;;;;;;3.67;1.50;;;22.50;99.30;;;;;;4210467;28;20276;-77
2022/05/12 00:39:12;;;;;;;3.15;1.15;;;22.50;99.30;;;;;;4210818;28;20222;-77
2022/05/12 00:41:15;;;;;;;3.05;1.33;;;22.40;99.30;;;;;;4211368;28;20307;-78
2022/05/12 00:43:41;;;;;;;2.17;1.35;;;22.50;99.50;;;;;;4211320;28;20211;-78
2022/05/12 00:45:45;;;;;;;2.33;1.33;;;22.40;99.50;;;;;;4210858;28;20214;-78
2022/05/12 00:47:47;;;;;;;2.33;1.35;;;22.50;99.60;;;;;;4210397;28;20207;-77
2022/05/12 00:49:51;;;;;;;4.07;1.75;;;22.40;99.50;;;;;;4210896;28;20263;-77
2022/05/12 00:51:58;;;;;;;2.25;1.23;;;22.40;99.50;;;;;;4210842;28;20210;-77
2022/05/12 00:54:03;;;;;;;2.47;1.35;;;22.40;99.50;;;;;;4210225;28;20214;-77
2022/05/12 00:56:09;;;;;;;3.78;1.90;;;22.40;99.60;;;;;;4210822;28;20280;-77
2022/05/12 00:58:15;;;;;;;3.53;1.30;;;22.40;99.60;;;;;;4211409;28;20206;-77
2022/05/12 01:00:19;;;;;;;2.08;1.38;;;22.40;99.60;;;;;;4210767;28;20214;-77
2022/05/12 01:02:24;;;;;;;2.72;1.42;;;22.40;99.60;;;;;;4210285;28;20206;-77
2022/05/12 01:04:29;;;;;;;2.30;1.15;;;22.40;99.60;;;;;;4211484;28;20222;-77
2022/05/12 01:06:31;;;;;;;2.08;1.48;;;22.40;99.90;;;;;;4211230;28;20272;-77
2022/05/12 01:08:35;;;;;;;2.25;1.30;;;22.40;99.70;;;;;;4210249;28;20268;-78
2022/05/12 01:10:39;;;;;;;4.30;1.45;;;22.30;99.70;;;;;;4209306;28;20215;-77
2022/05/12 01:12:49;;;;;;;1.88;1.35;;;22.30;99.70;;;;;;4211310;28;20590;-77
2022/05/12 01:14:52;;;;;;;2.38;1.40;;;22.40;99.90;;;;;;4210820;28;20611;-77
2022/05/12 01:16:56;;;;;;;4.47;1.40;;;22.30;99.70;;;;;;4210707;28;20234;-77
2022/05/12 01:19:00;;;;;;;3.78;1.30;;;22.30;99.80;;;;;;4211189;28;20244;-77
2022/05/12 01:21:02;;;;;;;4.38;1.48;;;22.30;99.70;;;;;;4210617;28;20264;-78
2022/05/12 01:23:14;;;;;;;4.15;1.45;;;22.30;99.80;;;;;;4210727;28;20747;-78
2022/05/12 01:25:19;;;;;;;2.28;1.50;;;22.30;99.80;;;;;;4211069;28;20218;-78
2022/05/12 01:27:22;;;;;;;2.50;1.50;;;22.30;99.80;;;;;;4210885;28;20218;-78
2022/05/12 01:29:24;;;;;;;2.72;1.13;;;22.30;99.80;;;;;;4210867;28;20277;-78
2022/05/12 01:31:26;;;;;;;2.33;1.55;;;22.30;99.90;;;;;;4210131;28;20226;-78
2022/05/12 01:33:29;;;;;;;3.00;1.45;;;22.30;99.90;;;;;;4210754;28;20210;-78
2022/05/12 01:35:32;;;;;;;3.25;1.50;;;22.30;99.90;;;;;;4211100;28;20257;-77
2022/05/12 01:37:40;;;;;;;2.95;1.52;;;22.30;99.90;;;;;;4209162;28;20977;-77
2022/05/12 01:39:43;;;;;;;2.33;1.30;;;22.30;99.90;;;;;;4210686;28;20606;-78
2022/05/12 01:41:48;;;;;;;2.60;1.50;;;22.30;99.90;;;;;;4210489;28;20222;-78
2022/05/12 01:43:50;;;;;;;2.85;1.33;;;22.30;99.90;;;;;;4209645;28;20624;-78
2022/05/12 01:45:53;;;;;;;4.05;1.58;;;22.30;99.90;;;;;;4208983;28;20256;-78
2022/05/12 01:47:55;;;;;;;3.47;1.38;;;22.30;99.90;;;;;;4209214;28;20223;-78
2022/05/12 01:49:57;;;;;;;3.00;1.40;;;22.30;99.90;;;;;;4209970;28;20731;-77
2022/05/12 01:52:01;;;;;;;3.63;1.55;;;22.30;99.90;;;;;;4210166;28;20211;-78
2022/05/12 01:54:04;;;;;;;2.83;1.40;;;22.30;99.90;;;;;;4209081;28;20283;-77
2022/05/12 01:56:09;;;;;;;2.17;1.50;;;22.30;99.90;;;;;;4209527;28;20221;-78
2022/05/12 01:58:11;;;;;;;2.13;1.40;;;22.30;99.90;;;;;;4210127;28;20690;-78
2022/05/12 02:00:16;;;;;;;3.35;1.33;;;22.20;99.90;;;;;;4209767;28;20615;-78
2022/05/12 02:02:18;;;;;;;3.33;1.60;;;22.30;99.90;;;;;;4210412;28;20629;-78
2022/05/12 02:04:21;;;;;;;3.42;1.42;;;22.30;99.90;;;;;;4209954;28;20233;-77
2022/05/12 02:06:23;;;;;;;3.70;1.70;;;22.20;99.90;;;;;;4209514;28;20238;-77
2022/05/12 02:08:26;;;;;;;3.45;1.60;;;22.30;99.90;;;;;;4209077;28;20651;-78
2022/05/12 02:10:30;;;;;;;3.53;1.70;;;22.20;99.90;;;;;;4209710;28;20264;-78
2022/05/12 02:12:34;;;;;;;3.10;1.45;;;22.30;99.90;;;;;;4205606;28;20256;-77
2022/05/12 02:14:37;;;;;;;3.22;1.50;;;22.20;99.90;;;;;;4209304;28;20218;-78
2022/05/12 02:16:39;;;;;;;3.22;1.50;;;22.20;99.90;;;;;;4209909;28;20252;-77
2022/05/12 02:18:43;;;;;;;2.58;1.30;;;22.30;99.90;;;;;;4209318;28;20295;-78
2022/05/12 02:20:45;;;;;;;4.47;1.58;;;22.20;99.90;;;;;;4209075;28;20218;-78
2022/05/12 02:22:48;;;;;;;2.70;1.70;;;22.20;99.90;;;;;;4209106;28;20215;-78
2022/05/12 02:24:50;;;;;;;3.75;1.75;;;22.20;99.90;;;;;;4208851;28;20616;-77
2022/05/12 02:26:53;;;;;;;2.95;1.63;;;22.20;99.90;;;;;;4210096;28;20210;-78
2022/05/12 02:28:58;;;;;;;3.88;1.17;;;22.20;99.90;;;;;;4209810;28;20283;-78
2022/05/12 02:31:00;;;;;;;5.25;1.63;;;22.20;99.90;;;;;;4208678;28;20211;-77
2022/05/12 02:33:02;;;;;;;2.83;1.55;;;22.20;99.90;;;;;;4209196;28;20602;-77
2022/05/12 02:35:05;;;;;;;4.47;1.50;;;22.20;99.90;;;;;;4208572;28;20214;-78
2022/05/12 02:37:08;;;;;;;2.85;1.40;;;22.20;99.90;;;;;;4208531;28;20268;-78
2022/05/12 02:39:10;;;;;;;2.78;1.60;;;22.20;99.90;;;;;;4208860;28;20238;-78
2022/05/12 02:41:13;;;;;;;5.03;1.80;;;22.20;99.90;;;;;;4208506;28;20784;-78
2022/05/12 02:45:36;;;;;;;2.70;1.52;;;22.10;99.90;;;;;;4209011;28;20262;-78
2022/05/12 02:47:38;;;;;;;3.67;1.50;;;22.10;99.90;;;;;;4209216;28;20263;-78
2022/05/12 02:49:41;;;;;;;3.58;1.77;;;22.10;99.90;;;;;;4209262;28;20214;-77
2022/05/12 02:51:43;;;;;;;2.85;1.75;;;22.20;99.90;;;;;;4208388;28;20267;-78
2022/05/12 02:53:46;;;;;;;3.17;1.60;;;22.10;99.90;;;;;;4209544;28;20215;-78
2022/05/12 02:55:48;;;;;;;2.33;1.50;;;22.10;99.90;;;;;;4208606;28;20214;-77
2022/05/12 02:57:50;;;;;;;3.45;1.80;;;22.10;99.90;;;;;;4211282;28;20259;-77
2022/05/12 02:59:53;;;;;;;4.20;1.73;;;22.10;99.90;;;;;;4211985;28;20276;-78
2022/05/12 03:01:56;;;;;;;3.63;1.42;;;22.10;99.90;;;;;;4212347;28;20226;-78
2022/05/12 03:03:59;;;;;;;2.35;1.50;;;22.10;99.90;;;;;;4213402;28;20206;-78
2022/05/12 03:06:02;;;;;;;2.85;1.27;;;22.10;99.90;;;;;;4212601;28;20771;-78
2022/05/12 03:08:05;;;;;;;3.10;1.40;;;22.10;99.90;;;;;;4212791;28;20648;-78
2022/05/12 03:10:09;;;;;;;3.90;1.55;;;22.10;99.90;;;;;;4212678;28;20260;-77
2022/05/12 03:12:12;;;;;;;2.78;1.65;;;22.10;99.90;;;;;;4211331;28;20283;-77
2022/05/12 03:14:14;;;;;;;3.25;1.70;;;22.10;99.90;;;;;;4212193;28;20622;-77
2022/05/12 03:16:17;;;;;;;3.55;1.58;;;22.00;99.90;;;;;;4212791;28;20222;-78
2022/05/12 03:18:21;;;;;;;3.47;1.50;;;22.10;99.90;;;;;;4212127;28;20246;-78
2022/05/12 03:20:25;;;;;;;3.67;1.90;;;22.10;99.90;;;;;;4212870;28;20260;-78
2022/05/12 03:22:28;;;;;;;4.43;1.83;;;22.00;99.90;;;;;;4212269;28;20222;-78
2022/05/12 03:24:30;;;;;;;3.47;1.50;;;22.00;99.90;;;;;;4212537;28;21064;-78
2022/05/12 03:26:33;;;;;;;3.10;1.80;;;22.10;99.90;;;;;;4210613;28;20271;-78
2022/05/12 03:28:35;;;;;;;3.05;1.50;;;22.00;99.90;;;;;;4212219;28;20280;-78
2022/05/12 03:30:37;;;;;;;3.92;1.67;;;22.00;99.90;;;;;;4211454;28;20218;-78
2022/05/12 03:32:40;;;;;;;3.20;1.73;;;22.00;99.90;;;;;;4211532;28;20215;-77
2022/05/12 03:34:44;;;;;;;3.53;1.70;;;22.00;99.90;;;;;;4211619;28;20723;-77
2022/05/12 03:36:46;;;;;;;2.70;1.23;;;22.00;99.90;;;;;;4211738;28;20263;-78
2022/05/12 03:38:49;;;;;;;3.67;1.40;;;22.00;99.90;;;;;;4211675;28;20570;-77
2022/05/12 03:40:51;;;;;;;3.60;1.50;;;22.00;99.90;;;;;;4211965;28;20222;-78
2022/05/12 03:42:58;;;;;;;1.92;1.33;;;22.00;99.90;;;;;;4210216;28;20210;-77
2022/05/12 03:44:59;;;;;;;3.75;1.67;;;22.00;99.90;;;;;;4210986;28;20218;-77
2022/05/12 03:47:02;;;;;;;3.88;1.83;;;22.00;99.90;;;;;;4211408;28;20358;-78
2022/05/12 03:49:04;;;;;;;3.05;1.55;;;22.00;99.90;;;;;;4211103;28;20972;-78
2022/05/12 03:51:09;;;;;;;5.15;1.63;;;22.00;99.90;;;;;;4211734;28;20815;-78
2022/05/12 03:53:11;;;;;;;3.92;1.95;;;22.00;99.90;;;;;;4211448;28;20214;-78
2022/05/12 03:55:17;;;;;;;3.20;1.50;;;21.90;99.90;;;;;;4211876;28;20219;-77
2022/05/12 03:57:20;;;;;;;3.15;1.80;;;22.00;99.90;;;;;;4211455;28;20226;-77
2022/05/12 03:59:23;;;;;;;2.97;1.67;;;22.00;99.90;;;;;;4207912;28;20638;-78
2022/05/12 04:01:25;;;;;;;4.00;1.83;;;21.90;99.90;;;;;;4209862;28;20222;-78
2022/05/12 04:03:28;;;;;;;4.93;1.67;;;21.90;99.90;;;;;;4211191;28;20214;-78
2022/05/12 04:05:31;;;;;;;3.42;1.65;;;21.90;99.90;;;;;;4211142;28;20244;-78
2022/05/12 04:07:35;;;;;;;2.88;1.50;;;21.90;99.90;;;;;;4177066;28;20224;-78
2022/05/12 04:09:37;;;;;;;2.20;1.30;;;21.90;99.90;;;;;;4176690;28;20211;-77
2022/05/12 04:11:41;;;;;;;3.42;1.60;;;21.90;99.90;;;;;;4178428;28;20238;-77
2022/05/12 04:13:44;;;;;;;3.55;1.83;;;21.90;99.90;;;;;;4177833;28;20216;-78
2022/05/12 04:15:47;;;;;;;3.40;1.75;;;21.90;99.90;;;;;;4178846;28;20223;-78
2022/05/12 04:17:57;;;;;;;4.22;1.90;;;21.90;99.90;;;;;;4178133;28;20224;-78
2022/05/12 04:20:03;;;;;;;4.57;1.73;;;21.90;99.90;;;;;;4177877;28;20216;-77
2022/05/12 04:22:06;;;;;;;3.58;1.50;;;21.90;99.90;;;;;;4178140;28;20299;-78
2022/05/12 04:24:10;;;;;;;5.00;2.03;;;21.90;99.90;;;;;;4178378;28;21423;-78
2022/05/12 04:26:13;;;;;;;4.35;1.55;;;21.90;99.90;;;;;;4177923;28;20625;-77
2022/05/12 04:28:15;;;;;;;3.35;1.60;;;21.90;99.90;;;;;;4178208;28;20219;-77
2022/05/12 04:30:19;;;;;;;2.50;1.58;;;21.90;99.90;;;;;;4177506;28;20261;-77
2022/05/12 04:32:21;;;;;;;3.03;1.27;;;21.90;99.90;;;;;;4177349;28;20622;-78
2022/05/12 04:36:46;;;;;;;3.65;1.73;;;21.90;99.90;;;;;;4135585;28;20252;-77
2022/05/12 04:38:48;;;;;;;3.58;1.80;;;21.90;99.90;;;;;;4177771;28;20282;-78
2022/05/12 04:40:52;;;;;;;4.35;1.65;;;21.90;99.90;;;;;;4177203;28;20262;-78
2022/05/12 04:42:56;;;;;;;4.43;1.92;;;21.90;99.90;;;;;;4177897;28;20211;-78
2022/05/12 04:44:59;;;;;;;5.22;2.08;;;21.90;99.90;;;;;;4174261;28;20285;-77
2022/05/12 04:47:01;;;;;;;4.03;1.90;;;21.90;99.90;;;;;;4177475;28;20688;-78
2022/05/12 04:49:04;;;;;;;3.85;1.65;;;21.90;99.90;;;;;;4177646;28;20664;-78
2022/05/12 04:51:07;;;;;;;4.45;1.60;;;21.90;99.90;;;;;;4177269;28;20292;-78
2022/05/12 04:53:10;;;;;;;3.15;1.70;;;21.90;99.90;;;;;;4177175;28;20354;-77
2022/05/12 04:55:13;;;;;;;3.53;1.55;;;21.90;99.90;;;;;;4177172;28;20208;-78
2022/05/12 04:57:17;;;;;;;3.47;1.70;;;21.90;99.90;;;;;;4176513;28;20235;-78
2022/05/12 04:59:19;;;;;;;3.10;1.50;;;21.90;99.90;;;;;;4176672;28;20270;-77
2022/05/12 05:01:21;;;;;;;4.15;1.63;;;21.90;99.90;;;;;;4177043;28;20228;-78
2022/05/12 05:03:24;;;;;;;4.88;1.83;;;21.90;99.90;;;;;;4176932;28;20216;-77
2022/05/12 05:05:28;;;;;;;3.33;1.58;;;21.90;99.90;;;;;;4177550;28;20228;-78
2022/05/12 05:07:30;;;;;;;7.40;2.17;;;21.90;99.90;;;;;;4210800;28;20276;-78
2022/05/12 05:09:33;;;;;;;4.28;1.77;;;21.90;99.90;;;;;;4210397;28;20280;-77
2022/05/12 05:11:37;;;;;;;5.68;1.90;;;21.90;99.90;;;;;;4209625;28;20218;-77
2022/05/12 05:13:41;;;;;;;4.85;1.65;;;21.90;99.90;;;;;;4209270;28;20222;-77
2022/05/12 05:15:43;;;;;;;5.38;1.65;;;21.90;99.90;;;;;;4209473;28;20206;-77
2022/05/12 05:17:47;;;;;;;3.95;1.60;;;21.90;99.90;;;;;;4209137;28;20218;-78
2022/05/12 05:19:49;;;;;;;5.28;1.70;;;21.90;99.90;;;;;;4209929;28;20242;-77
2022/05/12 05:21:51;;;;;;;2.97;1.50;;;21.90;99.90;;;;;;4208893;28;20252;-77
2022/05/12 05:23:54;;;;;;;4.07;1.63;;;21.90;99.90;;;;;;4208026;28;20613;-78
2022/05/12 05:25:56;;;;;;;2.85;1.52;;;21.90;99.90;;;;;;4210000;28;20211;-78
2022/05/12 05:27:58;;;;;;;5.47;1.80;;;21.90;99.90;;;;;;4210287;28;20270;-78
2022/05/12 05:30:04;;;;;;;3.85;1.85;;;21.90;99.90;;;;;;4209441;28;20655;-78
2022/05/12 05:32:08;;;;;;;3.55;1.63;;;21.90;99.90;;;;;;4208184;28;20272;-78
2022/05/12 05:34:10;;;;;;;3.50;1.75;;;21.90;99.90;;;;;;4210283;28;20264;-78
2022/05/12 05:36:15;;;;;;;6.10;1.80;;;21.90;99.90;;;;;;4209443;28;20588;-78
2022/05/12 05:38:18;;;;;;;5.60;1.80;;;21.90;99.90;;;;;;4209391;28;20712;-77
2022/05/12 05:40:22;;;;;;;5.57;1.92;;;21.90;99.90;;;;;;4207985;28;20238;-78
2022/05/12 05:42:25;;;;;;;3.85;1.70;;;21.90;99.90;;;;;;4208815;28;20218;-78
2022/05/12 05:44:32;;;;;;;5.25;1.90;;;21.90;99.90;;;;;;4209012;28;20219;-77
2022/05/12 05:46:35;;;;;;;3.42;1.60;;;21.90;99.90;;;;;;4210006;28;20255;-78
2022/05/12 05:48:38;;;;;;;4.80;2.00;;;21.90;99.90;;;;;;4205028;28;20218;-77
2022/05/12 05:55:24;;;;;;;4.38;1.65;;;21.90;99.90;;;;;;4209907;28;20642;-78
2022/05/12 05:57:30;;;;;;;4.28;1.95;;;21.90;99.90;;;;;;4209490;28;20303;-78
2022/05/12 05:59:32;;;;;;;4.13;1.77;;;21.90;99.90;;;;;;4208650;28;20245;-78
2022/05/12 06:01:36;;;;;;;4.32;1.83;;;21.90;99.90;;;;;;4208737;28;20271;-78
2022/05/12 06:03:39;;;;;;;5.50;1.90;;;21.90;99.90;;;;;;4208910;28;20248;-77
2022/05/12 06:05:42;;;;;;;4.00;1.80;;;21.90;99.90;;;;;;4208869;28;20226;-78
2022/05/12 06:07:45;;;;;;;4.07;1.92;;;21.90;99.90;;;;;;4210307;28;20978;-78
2022/05/12 06:09:47;;;;;;;4.53;1.83;;;21.90;99.90;;;;;;4209941;28;20202;-78
2022/05/12 06:11:50;;;;;;;4.13;1.70;;;21.90;99.90;;;;;;4209412;28;20222;-77
2022/05/12 06:13:52;;;;;;;5.05;1.88;;;21.90;99.90;;;;;;4209743;28;20210;-81
2022/05/12 06:15:55;;;;;;;4.47;1.77;;;21.90;99.90;;;;;;4208691;28;20221;-78
2022/05/12 06:17:59;;;;;;;4.45;1.45;;;21.90;99.90;;;;;;4209633;28;20837;-81
2022/05/12 06:20:01;;;;;;;3.45;1.67;;;21.90;99.90;;;;;;4209404;28;20230;-82
2022/05/12 06:22:04;;;;;;;5.30;2.15;;;21.90;99.90;;;;;;4208791;28;20214;-81
2022/05/12 06:24:07;;;;;;;4.85;1.85;;;22.00;99.90;;;;;;4209759;28;20259;-81
2022/05/12 06:26:13;;;;;;;4.32;1.90;;;21.90;99.90;;;;;;4209376;28;20218;-81
2022/05/12 06:28:16;;;;;;;3.13;1.83;;;21.90;99.90;;;;;;4209561;28;20210;-81
2022/05/12 06:30:19;;;;;;;5.78;1.90;;;21.90;99.90;;;;;;4209175;28;20268;-81
2022/05/12 06:32:21;;;;;;;3.67;1.83;;;21.90;99.90;;;;;;4208565;28;20320;-81
2022/05/12 06:34:25;;;;;;;5.55;2.03;;;21.90;99.90;;;;;;4209972;28;20210;-82
2022/05/12 06:36:28;;;;;;;4.07;1.60;;;21.90;99.90;;;;;;4209754;28;20339;-82
2022/05/12 06:38:31;;;;;;;6.50;2.17;;;21.90;99.90;;;;;;4209425;28;20260;-81
2022/05/12 06:40:33;;;;;;;4.05;1.58;;;21.90;99.90;;;;;;4209715;28;20620;-81
2022/05/12 06:42:36;;;;;;;5.25;2.00;;;22.00;99.90;;;;;;4209460;28;20626;-81
2022/05/12 06:44:39;;;;;;;2.95;1.73;;;21.90;99.90;;;;;;4210100;28;20260;-81
2022/05/12 06:46:42;;;;;;;4.22;1.60;;;21.90;99.90;;;;;;4208931;28;20219;-81
2022/05/12 06:48:46;;;;;;;4.53;1.65;;;22.00;99.90;;;;;;4209194;28;20268;-81
2022/05/12 06:50:50;;;;;;;5.00;2.30;;;21.90;99.90;;;;;;4208036;28;20243;-79
2022/05/12 06:52:53;;;;;;;4.25;2.95;;;21.90;99.90;;;;;;4206026;28;20214;-81
2022/05/12 06:54:56;;;;;;;12.68;3.55;;;21.90;99.90;;;;;;4206283;28;20622;-83
2022/05/12 06:56:58;;;;;;;7.47;3.55;;;21.50;99.90;;;;;;4204196;28;20299;-82
2022/05/12 06:59:01;;;;;;;9.13;4.10;;;21.50;99.90;;;;;;4208259;28;20256;-83
2022/05/12 07:01:18;;;;;;;13.00;4.20;;;21.50;99.90;;;;;;4209401;28;20218;-83
2022/05/12 07:03:20;;;;;;;7.38;4.07;;;21.50;99.90;;;;;;4207821;28;20215;-84
2022/05/12 07:05:25;;;;;;;9.77;4.22;;;21.40;99.90;;;;;;4210176;28;20206;-82
2022/05/12 07:07:29;;;;;;;9.95;4.40;;;21.40;99.90;;;;;;4209382;28;20702;-81
2022/05/12 07:09:31;;;;;;;10.25;4.63;;;21.40;99.90;;;;;;4209379;28;20227;-81
2022/05/12 07:11:33;;;;;;;12.43;5.05;;;21.30;99.90;;;;;;4209465;28;20658;-81
2022/05/12 07:13:36;;;;;;;10.90;4.63;;;21.30;99.90;;;;;;4209827;28;20267;-83
2022/05/12 07:15:38;;;;;;;13.27;4.22;;;21.30;99.90;;;;;;4199372;28;20248;-82
2022/05/12 07:17:43;;;;;;;7.25;3.10;;;21.30;99.90;;;;;;4205669;28;20295;-81
2022/05/12 07:26:35;;;;;;;6.97;3.10;;;21.40;99.90;;;;;;4208364;28;20218;-83
2022/05/12 07:27:24;;;;;;;5.28;2.38;;;21.70;99.90;;;;;;4199181;28;20210;-80
2022/05/12 07:29:28;;;;;;;9.77;3.78;;;21.70;99.90;;;;;;4204795;28;20218;-79
2022/05/12 07:31:31;;;;;;;9.65;3.90;;;21.70;99.90;;;;;;4204279;28;20206;-81
2022/05/12 07:33:36;;;;;;;10.75;3.90;;;21.70;99.90;;;;;;4206992;28;20621;-82
2022/05/12 07:35:39;;;;;;;10.10;4.70;;;21.70;99.90;;;;;;4207951;28;20275;-83
2022/05/12 07:37:42;;;;;;;8.50;4.75;;;21.70;99.90;;;;;;4205006;28;20226;-81
2022/05/12 07:39:46;;;;;;;7.38;3.83;;;21.70;99.90;;;;;;4207851;28;20218;-80
2022/05/12 07:41:49;;;;;;;7.97;4.32;;;21.60;99.90;;;;;;4204813;28;20987;-83
2022/05/12 07:43:53;;;;;;;12.02;4.82;;;21.70;99.90;;;;;;4204979;28;20640;-77
2022/05/12 07:45:55;;;;;;;10.68;4.22;;;21.70;99.90;;;;;;4209273;28;20207;-77
2022/05/12 07:48:16;;;;;;;13.18;4.95;;;21.70;99.90;;;;;;4207662;28;20723;-79
2022/05/12 07:50:22;;;;;;;8.60;4.45;;;21.70;99.60;;;;;;4207232;28;20267;-81
2022/05/12 07:53:01;;;;;;;12.25;4.63;;;21.80;99.40;;;;;;4174514;28;20211;-83
2022/05/12 07:55:06;;;;;;;8.00;3.92;;;21.80;99.50;;;;;;4185164;28;20565;-81
2022/05/12 07:57:09;;;;;;;10.32;4.75;;;21.80;99.50;;;;;;4206715;28;20218;-77
2022/05/12 07:59:11;;;;;;;14.15;4.95;;;21.70;99.60;;;;;;4202734;28;20255;-78
2022/05/12 08:01:14;;;;;;;12.23;4.72;;;21.80;99.60;;;;;;4197864;28;20222;-79
2022/05/12 08:03:17;;;;;;;14.07;5.03;;;21.80;99.50;;;;;;4207710;28;20218;-79
2022/05/12 08:05:21;;;;;;;9.43;4.72;;;21.80;99.50;;;;;;4206724;28;20268;-80
2022/05/12 08:07:24;;;;;;;13.95;5.63;;;21.80;99.40;;;;;;4208442;28;20226;-81
2022/05/12 08:09:27;;;;;;;14.88;5.72;;;21.80;99.30;;;;;;4204244;28;20271;-79
2022/05/12 08:12:06;;;;;;;14.60;5.72;;;21.80;99.20;;;;;;4207589;28;20223;-80
2022/05/12 08:14:10;;;;;;;14.48;6.22;;;21.80;99.10;;;;;;4207890;28;20271;-81
2022/05/12 08:16:13;;;;;;;11.90;5.47;;;21.80;99.00;;;;;;4206782;28;20210;-79
2022/05/12 08:18:53;;;;;;;10.60;5.50;;;21.80;99.00;;;;;;4205843;28;20262;-81
2022/05/12 08:20:55;;;;;;;12.15;6.55;;;21.80;98.90;;;;;;4208028;28;20230;-82
2022/05/12 08:22:58;;;;;;;22.60;7.05;;;21.60;98.90;;;;;;4208423;28;20226;-80
2022/05/12 08:25:00;;;;;;;27.80;7.60;;;21.30;99.40;;;;;;4207018;28;20218;-81
2022/05/12 08:27:04;;;;;;;12.73;6.40;;;21.30;99.40;;;;;;4207556;28;20218;-81
2022/05/12 08:29:06;;;;;;;11.68;6.38;;;21.30;99.10;;;;;;4205788;28;20268;-81
2022/05/12 08:31:10;;;;;;;13.38;6.25;;;21.40;98.50;;;;;;4203534;28;20218;-81
2022/05/12 08:33:13;;;;;;;12.00;6.10;;;21.60;98.40;;;;;;4204962;28;20218;-83
2022/05/12 08:35:18;;;;;;;16.00;5.95;;;21.70;98.20;;;;;;4204059;28;20733;-75
2022/05/12 08:37:23;;;;;;;13.00;6.28;;;21.70;98.40;;;;;;4207149;28;20248;-77
2022/05/12 08:39:25;;;;;;;10.40;5.30;;;21.60;98.40;;;;;;4206355;28;20210;-77
2022/05/12 08:41:34;;;;;;;11.43;6.07;;;21.80;98.60;;;;;;4206208;28;20654;-78
2022/05/12 08:43:51;;;;;;;14.98;5.82;;;21.90;97.70;;;;;;4202450;28;20226;-77
2022/05/12 08:46:00;;;;;;;10.40;5.60;;;21.80;97.60;;;;;;4206310;28;20275;-81
2022/05/12 08:48:05;;;;;;;10.55;6.25;;;21.80;97.50;;;;;;4208850;28;20230;-79
2022/05/12 08:50:09;;;;;;;11.68;6.25;;;21.90;97.60;;;;;;4208107;28;20627;-78
2022/05/12 08:52:17;;;;;;;14.18;6.05;;;21.90;97.30;;;;;;4205815;28;20639;-82
2022/05/12 08:54:23;;;;;;;9.20;5.88;;;21.90;97.10;;;;;;4203695;28;20256;-79
2022/05/12 08:56:27;;;;;;;11.90;6.15;;;21.90;97.10;;;;;;4201958;28;20624;-80
2022/05/12 08:58:34;;;;;;;12.95;6.05;;;22.00;97.00;;;;;;4204520;28;20270;-78
2022/05/12 09:00:48;;;;;;;11.90;6.22;;;22.00;97.30;;;;;;4205296;28;20222;-79
2022/05/12 09:03:01;;;;;;;11.65;5.88;;;22.10;97.50;;;;;;4207592;28;20226;-81
2022/05/12 09:05:09;;;;;;;9.45;5.60;;;21.90;97.90;;;;;;4206507;28;20222;-79
2022/05/12 09:07:17;;;;;;;10.32;5.38;;;21.90;97.80;;;;;;4207292;28;21601;-81
2022/05/12 09:09:26;;;;;;;10.88;5.03;;;22.10;98.20;;;;;;4208605;28;20674;-80
2022/05/12 09:11:40;;;;;;;8.88;4.82;;;22.30;98.40;;;;;;4206196;28;20210;-79
2022/05/12 09:14:04;;;;;;;8.60;4.72;;;22.30;98.40;;;;;;4209587;28;20214;-81
2022/05/12 09:18:50;;;;;;;8.02;4.57;;;22.40;98.50;;;;;;4204045;28;20663;-77
2022/05/12 09:21:00;;;;;;;7.97;4.63;;;22.30;98.70;;;;;;4205194;28;20646;-78
2022/05/12 09:23:07;;;;;;;10.77;4.78;;;22.30;98.90;;;;;;4207577;28;20214;-78
2022/05/12 09:25:11;;;;;;;12.10;4.95;;;22.50;98.70;;;;;;4206055;28;20215;-77
2022/05/12 09:27:14;;;;;;;9.80;5.15;;;22.50;98.60;;;;;;4204002;28;20682;-79
2022/05/12 09:29:21;;;;;;;9.20;5.30;;;22.60;98.80;;;;;;4203019;28;20283;-78
2022/05/12 09:31:24;;;;;;;11.02;5.72;;;22.60;98.70;;;;;;4204847;28;20232;-77
2022/05/12 09:33:31;;;;;;;10.75;5.20;;;22.60;98.30;;;;;;4197752;28;20260;-76
2022/05/12 09:35:34;;;;;;;8.70;4.97;;;22.50;98.50;;;;;;4201925;28;20515;-78
2022/05/12 09:37:40;;;;;;;9.55;5.53;;;22.60;98.50;;;;;;4205299;28;20275;-76
2022/05/12 09:47:52;;;;;;;8.95;5.75;;;22.70;98.50;;;;;;4186160;28;20230;-77
2022/05/12 09:50:16;;;;;;;9.77;5.25;;;22.70;98.40;;;;;;4188128;28;20223;-80
2022/05/12 09:52:28;;;;;;;8.05;5.05;;;22.80;98.40;;;;;;4184199;28;20211;-79
2022/05/12 09:54:32;;;;;;;8.23;5.05;;;22.80;98.40;;;;;;4184692;28;20268;-79
2022/05/12 09:56:36;;;;;;;10.20;5.53;;;22.80;98.30;;;;;;4187606;28;20219;-81
2022/05/12 09:58:41;;;;;;;7.20;5.15;;;22.80;98.50;;;;;;4185343;28;20614;-81
2022/05/12 10:00:48;;;;;;;8.88;5.28;;;22.80;98.30;;;;;;4183503;28;20273;-78
2022/05/12 10:07:54;;;;;;;24.60;6.72;;;22.90;98.50;;;;;;4186594;28;20215;-85
2022/05/12 10:10:05;;;;;;;9.27;5.47;;;23.00;98.50;;;;;;4191377;28;20664;-84
2022/05/12 10:12:16;;;;;;;8.95;5.82;;;23.00;98.50;;;;;;4189118;28;20211;-82
2022/05/12 10:14:28;;;;;;;9.35;5.45;;;23.00;98.50;;;;;;4186094;28;20300;-80
2022/05/12 10:16:33;;;;;;;10.60;5.25;;;23.00;98.50;;;;;;4187770;28;20202;-78
2022/05/12 10:18:42;;;;;;;8.90;5.13;;;23.00;98.40;;;;;;4191387;28;21643;-80
2022/05/12 10:20:48;;;;;;;9.77;6.10;;;23.00;98.40;;;;;;4188162;28;20222;-81
2022/05/12 10:23:00;;;;;;;6.97;5.32;;;23.00;98.40;;;;;;4189816;28;20280;-82
2022/05/12 10:25:20;;;;;;;8.65;5.93;;;23.00;98.40;;;;;;4187996;28;20276;-84
2022/05/12 10:27:33;;;;;;;9.00;5.82;;;23.10;98.40;;;;;;4190984;28;20222;-80
2022/05/12 10:29:50;;;;;;;7.35;5.60;;;23.10;98.50;;;;;;4190071;28;20215;-83
2022/05/12 10:32:04;;;;;;;8.32;5.35;;;23.10;98.50;;;;;;4189604;28;20628;-81
2022/05/12 10:34:30;;;;;;;7.68;5.47;;;23.10;98.50;;;;;;4190747;28;20223;-82
2022/05/12 10:36:45;;;;;;;11.35;5.60;;;23.10;98.50;;;;;;4188981;28;20223;-81
2022/05/12 10:38:56;;;;;;;11.40;6.15;;;23.20;98.60;;;;;;4190283;28;20260;-81
2022/05/12 10:41:08;;;;;;;19.23;6.60;;;23.20;98.50;;;;;;4188111;28;20288;-81
2022/05/12 10:43:39;;;;;;;6.95;5.35;;;23.20;98.70;;;;;;4190623;28;20239;-80
2022/05/12 10:45:53;;;;;;;11.10;5.72;;;23.20;98.60;;;;;;4189221;28;20215;-81
2022/05/12 10:48:23;;;;;;;8.75;6.13;;;23.20;98.60;;;;;;4188403;28;20703;-79
2022/05/12 10:50:30;;;;;;;8.30;5.95;;;23.20;98.70;;;;;;4187786;28;20219;-79
2022/05/12 10:52:45;;;;;;;8.75;5.93;;;23.20;98.60;;;;;;4185837;28;20211;-80
2022/05/12 10:55:07;;;;;;;7.80;5.35;;;23.20;98.70;;;;;;4184257;28;20218;-79
2022/05/12 10:57:26;;;;;;;8.40;5.53;;;23.20;98.60;;;;;;4192868;28;20265;-83
2022/05/12 10:59:47;;;;;;;9.30;5.70;;;23.20;98.60;;;;;;4192288;28;20459;-84
2022/05/12 11:01:54;;;;;;;8.30;5.35;;;23.20;98.60;;;;;;4192882;28;20324;-84
2022/05/12 11:04:01;;;;;;;7.43;5.82;;;23.20;98.90;;;;;;4191194;28;20223;-85
2022/05/12 11:06:06;;;;;;;7.90;5.88;;;23.20;98.60;;;;;;4191348;28;20285;-86
2022/05/12 11:08:13;;;;;;;7.63;5.15;;;23.20;98.60;;;;;;4189106;28;20322;-86
2022/05/12 11:10:25;;;;;;;7.80;4.95;;;23.20;98.60;;;;;;4187137;28;20207;-85
2022/05/12 11:12:34;;;;;;;8.52;4.88;;;23.20;97.00;;;;;;4190578;28;20219;-80
2022/05/12 11:14:40;;;;;;;11.30;4.82;;;22.70;95.70;;;;;;4183289;28;20260;-80
2022/05/12 11:16:51;;;;;;;7.47;4.30;;;22.60;94.90;;;;;;4187644;28;20265;-79
2022/05/12 11:19:03;;;;;;;10.35;4.43;;;22.50;94.50;;;;;;4187232;28;20620;-79
2022/05/12 11:21:15;;;;;;;8.82;4.93;;;22.60;96.00;;;;;;4184228;28;20672;-81